28 de mayo de 2022

Hora Código Tiempo Temp. Visibilidad Cielo nuboso Viento METAR/SPECI
6:50 a. m.
V
52 °F 6¼ mi+ 5.000 ft 310° 310° 14 kt METAR EDWE 280450Z AUTO 31014KT 9999 // FEW024/// BKN050/// 11/07 Q1017
6:20 a. m.
V
50 °F 6¼ mi+ 5.300 ft 300° 300° 16 kt METAR EDWE 280420Z AUTO 30016KT 270V330 9999 // SCT021/// BKN053/// 10/07 Q1017
5:50 a. m.
M
52 °F 6¼ mi+ 2.800 ft 300° 300° 15 kt METAR EDWE 280350Z AUTO 30015KT 9999 // BKN028/// OVC047/// 11/06 Q1017
5:20 a. m.
V
52 °F 6¼ mi+ 4.800 ft 300° 300° 17 kt METAR EDWE 280320Z AUTO 30017KT 9999 // FEW032/// BKN048/// 11/06 Q1017
4:50 a. m.
V
50 °F 6¼ mi+ - 300° 300° 15 kt METAR EDWE 280250Z AUTO 30015KT 9999 // FEW027/// 10/06 Q1017
4:20 a. m.
M
50 °F 6¼ mi+ 2.500 ft 300° 300° 16 kt METAR EDWE 280220Z AUTO 30016KT 9999 // BKN025/// 10/07 Q1017
3:50 a. m.
V
50 °F 6¼ mi+ 3.600 ft 300° 300° 15 kt METAR EDWE 280150Z AUTO 30015KT 9999 // FEW029/// BKN036/// 10/07 Q1017
3:20 a. m.
V
52 °F 6¼ mi+ - 300° 300° 15 kt METAR EDWE 280120Z AUTO 30015KT 9999 // SCT030/// 11/05 Q1017
2:50 a. m.
V
52 °F 6¼ mi+ - 300° 300° 16 kt METAR EDWE 280050Z AUTO 30016KT 9999 // FEW032/// 11/06 Q1017
2:20 a. m.
V
52 °F 6¼ mi+ - 300° 300° 16 kt METAR EDWE 280020Z AUTO 30016KT 9999 // FEW028/// 11/05 Q1017
1:50 a. m.
V
52 °F 6¼ mi+ - 300° 300° 12 kt METAR EDWE 272350Z AUTO 30012KT 9999 // SCT025/// 11/07 Q1017
1:20 a. m.
V
52 °F 6¼ mi+ - 290° 290° 14 kt METAR EDWE 272320Z AUTO 29014KT 9999 // SCT028/// 11/07 Q1017
12:50 a. m.
V
52 °F 6¼ mi+ 3.000 ft 290° 290° 13 kt METAR EDWE 272250Z AUTO 29013KT 9999 // BKN030/// BKN035/// 11/07 Q1017
12:20 a. m.
V
52 °F 6¼ mi+ 3.700 ft 290° 290° 15 kt METAR EDWE 272220Z AUTO 29015KT 9999 // BKN037/// 11/07 Q1017

27 de mayo de 2022

Hora Código Tiempo Temp. Visibilidad Cielo nuboso Viento METAR/SPECI
11:50 p. m.
M
52 °F 6¼ mi+ 2.700 ft 290° 290° 15 kt METAR EDWE 272150Z AUTO 29015KT 9999 // OVC027/// 11/07 Q1017
11:20 p. m.
V
54 °F 6¼ mi+ 3.100 ft 290° 290° 15 - 25 kt METAR EDWE 272120Z AUTO 29015G25KT 9999 // FEW027/// BKN031/// BKN092/// 12/07 Q1018
10:50 p. m.
M
54 °F 6¼ mi+ 2.700 ft 290° 290° 13 kt METAR EDWE 272050Z AUTO 29013KT 9999 // BKN027/// BKN140/// 12/08 Q1018
10:20 p. m.
V
54 °F 6¼ mi+ - 300° 300° 16 - 26 kt METAR EDWE 272020Z AUTO 30016G26KT 9999 // FEW028/// SCT038/// 12/07 Q1018
5:50 a. m.
V
52 °F 6¼ mi+ 6.400 ft 270° 270° 8 kt METAR EDWE 270350Z AUTO 27008KT 9999 // FEW033/// SCT040/// BKN064/// 11/08 Q1016
5:20 a. m.
V
52 °F 6¼ mi+ 6.500 ft 280° 280° 7 kt METAR EDWE 270320Z AUTO 28007KT 9999 // FEW034/// BKN065/// 11/06 Q1016
4:50 a. m.
V
52 °F 6¼ mi+ 6.600 ft 280° 280° 8 kt METAR EDWE 270250Z AUTO 28008KT 9999 // BKN066/// 11/07 Q1016
4:20 a. m.
V
54 °F 6¼ mi+ 6.800 ft 290° 290° 8 kt METAR EDWE 270220Z AUTO 29008KT 9999 // BKN068/// 12/08 Q1016
3:50 a. m.
V
54 °F 6¼ mi+ 6.800 ft 290° 290° 10 kt METAR EDWE 270150Z AUTO 29010KT 9999 // FEW051/// BKN068/// 12/07 Q1016
3:20 a. m.
V
55 °F 6¼ mi+ - 290° 290° 9 kt METAR EDWE 270120Z AUTO 29009KT 9999 // SCT053/// SCT069/// 13/08 Q1016
2:50 a. m.
V
55 °F 6¼ mi+ - 300° 300° 10 kt METAR EDWE 270050Z AUTO 30010KT 9999 // FEW058/// SCT110/// 13/09 Q1015
2:20 a. m.
V
57 °F 6¼ mi+ 5.300 ft 290° 290° 11 kt METAR EDWE 270020Z AUTO 29011KT 9999 // BKN053/// BKN100/// 14/10 Q1015
1:50 a. m.
V
57 °F 6¼ mi+ 4.800 ft 290° 290° 12 kt METAR EDWE 262350Z AUTO 29012KT 9999 // SCT015/// BKN048/// BKN100/// 14/11 Q1015
1:20 a. m.
M
57 °F 6¼ mi+ 1.500 ft 260° 260° 11 kt METAR EDWE 262320Z AUTO 26011KT 9999 // FEW012/// BKN015/// BKN130/// 14/13 Q1015
12:50 a. m.
M
57 °F 6¼ mi+ 1.200 ft 260° 260° 11 kt METAR EDWE 262250Z AUTO 26011KT 9999 // BKN012/// BKN057/// BKN110/// 14/13 Q1015
12:20 a. m.
M
57 °F 6¼ mi+ 1.500 ft 250° 250° 12 kt METAR EDWE 262220Z AUTO 25012KT 9999 // SCT012/// BKN015/// BKN019/// 14/13 Q1015

26 de mayo de 2022

Hora Código Tiempo Temp. Visibilidad Cielo nuboso Viento METAR/SPECI
11:50 p. m.
M
57 °F 6¼ mi+ 1.600 ft 250° 250° 13 kt METAR EDWE 262150Z AUTO 25013KT 9999 // SCT013/// BKN016/// BKN021/// 14/13 Q1016
11:20 p. m.
M
57 °F 6¼ mi+ 1.500 ft 260° 260° 14 kt METAR EDWE 262120Z AUTO 26014KT 9999 // BKN015/// 14/13 Q1016
10:50 p. m.
M
57 °F 5 mi 1.200 ft 250° 250° 16 kt METAR EDWE 262050Z AUTO 25016KT 8000 // BKN012/// OVC019/// 14/13 Q1016
10:20 p. m.
M
57 °F 6¼ mi+ 1.100 ft 240° 240° 12 kt METAR EDWE 262020Z AUTO 24012KT 9999 // BKN011/// OVC020/// 14/13 Q1015
9:50 p. m.
M
57 °F 6¼ mi+ 1.000 ft 230° 230° 11 kt METAR EDWE 261950Z AUTO 23011KT 9999 // OVC010/// 14/13 Q1015
9:20 p. m.
I
55 °F 6¼ mi+ 700 ft 230° 230° 9 kt METAR EDWE 261920Z AUTO 23009KT 190V250 9999 // FEW005/// BKN007/// OVC011/// 13/13 Q1015
8:50 p. m.
I
55 °F 1½ mi 1.300 ft 230° 230° 10 kt METAR EDWE 261850Z AUTO 23010KT 2500 // FEW009/// OVC013/// 13/12 Q1016
Datos más antiguos

Descarga nuestra aplicación

Acceso fácil a todo el tiempo de la aviación en tu teléfono móvil y tableta.
Con muchas funciones no disponibles en el sitio web, como la compatibilidad sin conexión y una lista personal de aeropuertos.

Nosotros y terceros seguimos tu comportamiento en Internet en nuestro sitio web con cookies. Si continúas, asumimos que estás de acuerdo con nuestra política de cookies. Más información